Time;durP1;ratioP1;P1;durP2;ratioP2;P2;SDS_P1;SDS_P2;PMS_P1;PMS_P2;Temp;Humidity;BMP_temperature;BMP_pressure;BME280_temperature;BME280_humidity;BME280_pressure;Samples;Min_cycle;Max_cycle;Signal;HPM_P1;HPM_P2
2022/07/06 00:01:52;;;;;;;0.00;0.00;;;15.70;74.50;;;;;;5079368;22;114868;-60
2022/07/06 00:03:55;;;;;;;0.00;0.00;;;15.70;74.40;;;;;;5078732;22;113856;-60
2022/07/06 00:05:58;;;;;;;0.00;0.00;;;15.70;74.30;;;;;;5080420;22;114787;-61
2022/07/06 00:08:03;;;;;;;0.00;0.00;;;15.60;74.30;;;;;;5079145;22;114257;-61
2022/07/06 00:10:07;;;;;;;0.00;0.00;;;15.60;74.40;;;;;;5079788;22;114711;-60
2022/07/06 00:12:11;;;;;;;0.00;0.00;;;15.60;74.40;;;;;;5080083;22;114878;-60
2022/07/06 00:14:14;;;;;;;0.00;0.00;;;15.60;74.40;;;;;;5080479;22;114843;-60
2022/07/06 00:16:17;;;;;;;0.00;0.00;;;15.60;74.10;;;;;;5080373;22;115003;-60
2022/07/06 00:18:21;;;;;;;0.00;0.00;;;15.60;73.90;;;;;;5053962;23;114878;-61
2022/07/06 00:20:24;;;;;;;0.00;0.00;;;15.60;74.10;;;;;;5079679;22;113958;-60
2022/07/06 00:22:29;;;;;;;0.00;0.00;;;15.60;74.30;;;;;;5080342;22;115095;-60
2022/07/06 00:24:33;;;;;;;0.00;0.00;;;15.60;74.30;;;;;;5080756;22;115405;-60
2022/07/06 00:26:37;;;;;;;0.00;0.00;;;15.60;74.20;;;;;;5080519;22;115191;-60
2022/07/06 00:28:40;;;;;;;0.00;0.00;;;15.60;73.90;;;;;;5080117;22;113884;-60
2022/07/06 00:30:43;;;;;;;0.00;0.00;;;15.50;73.80;;;;;;5080543;22;114822;-60
2022/07/06 00:32:46;;;;;;;0.00;0.00;;;15.40;73.80;;;;;;5053567;23;114988;-59
2022/07/06 00:34:49;;;;;;;0.00;0.00;;;15.40;74.10;;;;;;5081168;22;114768;-60
2022/07/06 00:36:53;;;;;;;0.00;0.00;;;15.40;74.10;;;;;;5079802;22;113763;-61
2022/07/06 00:38:56;;;;;;;0.00;0.00;;;15.40;73.90;;;;;;5080313;22;114773;-60
2022/07/06 00:41:01;;;;;;;0.00;0.00;;;15.40;73.90;;;;;;5080000;22;114128;-60
2022/07/06 00:43:05;;;;;;;0.00;0.00;;;15.40;73.70;;;;;;5080346;22;114809;-60
2022/07/06 00:45:10;;;;;;;0.00;0.00;;;15.40;73.40;;;;;;5051862;23;116076;-60
2022/07/06 00:47:14;;;;;;;0.00;0.00;;;15.40;73.40;;;;;;5077695;22;114845;-59
2022/07/06 00:51:38;;;;;;;0.00;0.00;;;15.50;73.60;;;;;;5078422;22;113751;-59
2022/07/06 00:53:42;;;;;;;0.00;0.00;;;15.50;73.50;;;;;;5080639;22;114829;-60
2022/07/06 00:55:45;;;;;;;0.00;0.00;;;15.50;73.40;;;;;;5052864;23;113822;-60
2022/07/06 00:57:51;;;;;;;0.00;0.00;;;15.50;73.50;;;;;;5080977;22;115201;-60
2022/07/06 00:59:54;;;;;;;0.00;0.00;;;15.50;73.60;;;;;;5079470;22;114018;-59
2022/07/06 01:01:58;;;;;;;0.00;0.00;;;15.50;73.60;;;;;;5079619;22;114801;-60
2022/07/06 01:04:01;;;;;;;0.00;0.00;;;15.50;73.90;;;;;;5079878;22;114956;-60
2022/07/06 01:06:05;;;;;;;0.00;0.00;;;15.50;73.80;;;;;;5053052;23;115209;-58
2022/07/06 01:08:08;;;;;;;0.00;0.00;;;15.50;73.90;;;;;;5078818;22;113867;-60
2022/07/06 01:10:13;;;;;;;0.00;0.00;;;15.50;74.00;;;;;;5080235;22;114775;-60
2022/07/06 01:12:17;;;;;;;0.00;0.00;;;15.50;74.00;;;;;;5079213;22;114028;-60
2022/07/06 01:14:22;;;;;;;0.00;0.00;;;15.50;74.60;;;;;;5077488;22;115959;-59
2022/07/06 01:16:25;;;;;;;0.00;0.00;;;15.50;74.20;;;;;;5079842;22;114909;-59
2022/07/06 01:18:28;;;;;;;0.00;0.00;;;15.50;74.20;;;;;;5079556;22;114868;-59
2022/07/06 01:20:33;;;;;;;0.05;0.00;;;15.50;74.60;;;;;;5078804;22;114963;-59
2022/07/06 01:22:36;;;;;;;0.00;0.00;;;15.50;74.60;;;;;;5051668;23;115791;-59
2022/07/06 01:24:39;;;;;;;0.00;0.00;;;15.50;74.50;;;;;;5053832;23;114800;-59
2022/07/06 01:26:42;;;;;;;0.00;0.00;;;15.50;74.50;;;;;;5052673;23;115582;-59
2022/07/06 01:28:46;;;;;;;0.00;0.00;;;15.50;74.40;;;;;;5053710;23;115703;-60
2022/07/06 01:30:49;;;;;;;0.00;0.00;;;15.50;74.30;;;;;;5080991;22;114836;-59
2022/07/06 01:32:53;;;;;;;0.00;0.00;;;15.50;74.60;;;;;;5079484;22;114691;-59
2022/07/06 01:34:56;;;;;;;0.00;0.00;;;15.50;74.70;;;;;;5079776;22;114028;-59
2022/07/06 01:37:01;;;;;;;0.00;0.00;;;15.50;75.00;;;;;;5078930;22;115346;-59
2022/07/06 01:39:04;;;;;;;0.00;0.00;;;15.50;74.90;;;;;;5080436;22;114840;-59
2022/07/06 01:41:07;;;;;;;0.00;0.00;;;15.50;74.70;;;;;;5079645;22;115357;-60
2022/07/06 01:43:11;;;;;;;0.00;0.00;;;15.50;74.50;;;;;;5080217;22;115262;-60
2022/07/06 01:45:14;;;;;;;0.00;0.00;;;15.50;74.50;;;;;;5053488;23;114670;-59
2022/07/06 01:47:18;;;;;;;0.00;0.00;;;15.50;74.10;;;;;;5053804;23;113935;-59
2022/07/06 01:49:21;;;;;;;0.00;0.00;;;15.50;74.10;;;;;;5079890;22;114749;-59
2022/07/06 01:51:24;;;;;;;0.00;0.00;;;15.50;74.00;;;;;;5079712;22;114241;-60
2022/07/06 01:53:30;;;;;;;0.00;0.00;;;15.50;73.90;;;;;;5053827;23;114954;-59
2022/07/06 01:55:33;;;;;;;0.00;0.00;;;15.50;73.60;;;;;;5053175;23;115242;-59
2022/07/06 01:57:38;;;;;;;0.00;0.00;;;15.50;73.30;;;;;;5053713;23;114826;-59
2022/07/06 01:59:41;;;;;;;0.00;0.00;;;15.50;73.10;;;;;;5053204;23;114920;-59
2022/07/06 02:01:44;;;;;;;0.00;0.00;;;15.50;73.10;;;;;;5079998;22;115055;-59
2022/07/06 02:03:48;;;;;;;0.00;0.00;;;15.50;73.00;;;;;;5079537;22;113998;-59
2022/07/06 02:05:51;;;;;;;0.00;0.00;;;15.40;72.60;;;;;;5052612;23;114974;-60
2022/07/06 02:07:56;;;;;;;0.00;0.00;;;15.40;72.50;;;;;;5052730;23;115171;-59
2022/07/06 02:10:00;;;;;;;0.00;0.00;;;15.40;72.40;;;;;;5080409;22;114853;-60
2022/07/06 02:12:04;;;;;;;0.00;0.00;;;15.40;72.50;;;;;;5077656;22;115441;-59
2022/07/06 02:14:07;;;;;;;0.00;0.00;;;15.40;72.40;;;;;;5079432;22;115524;-59
2022/07/06 02:16:13;;;;;;;0.00;0.00;;;15.40;72.10;;;;;;5080052;22;114839;-59
2022/07/06 02:18:17;;;;;;;0.00;0.00;;;15.30;72.10;;;;;;5052141;23;114158;-61
2022/07/06 02:20:20;;;;;;;1.20;0.00;;;15.30;72.00;;;;;;5080036;22;115356;-59
2022/07/06 02:22:23;;;;;;;0.00;0.00;;;15.30;71.90;;;;;;5077441;22;113897;-60
2022/07/06 02:24:26;;;;;;;0.00;0.00;;;15.30;72.00;;;;;;5053505;23;114858;-59
2022/07/06 02:26:31;;;;;;;0.00;0.00;;;15.30;71.80;;;;;;5052867;23;115181;-58
2022/07/06 02:28:34;;;;;;;0.00;0.00;;;15.20;71.80;;;;;;5054118;23;115790;-60
2022/07/06 02:30:38;;;;;;;0.00;0.00;;;15.10;71.60;;;;;;5079415;22;115253;-59
2022/07/06 02:32:41;;;;;;;0.00;0.00;;;15.10;71.60;;;;;;5029092;23;115005;-60
2022/07/06 02:34:45;;;;;;;0.00;0.00;;;15.00;71.50;;;;;;5080220;22;114708;-60
2022/07/06 02:36:48;;;;;;;0.00;0.00;;;15.00;71.60;;;;;;5078750;22;113788;-60
2022/07/06 02:38:52;;;;;;;0.00;0.00;;;15.00;71.70;;;;;;5076266;22;117184;-60
2022/07/06 02:40:55;;;;;;;0.00;0.00;;;14.90;71.60;;;;;;5053499;23;114864;-60
2022/07/06 02:42:59;;;;;;;0.00;0.00;;;14.80;71.60;;;;;;5079928;22;114660;-60
2022/07/06 02:45:04;;;;;;;0.10;0.00;;;14.80;71.70;;;;;;5052921;23;115408;-60
2022/07/06 02:47:07;;;;;;;0.00;0.00;;;14.80;72.00;;;;;;5079879;22;114979;-60
2022/07/06 02:49:10;;;;;;;0.00;0.00;;;14.80;72.10;;;;;;5052975;23;114979;-59
2022/07/06 02:51:14;;;;;;;0.00;0.00;;;14.70;72.00;;;;;;5078118;22;114984;-60
2022/07/06 02:53:19;;;;;;;0.00;0.00;;;14.70;72.60;;;;;;5079594;22;115334;-59
2022/07/06 02:55:25;;;;;;;0.00;0.00;;;14.60;72.10;;;;;;5079758;22;114680;-60
2022/07/06 02:57:29;;;;;;;0.00;0.00;;;14.60;72.30;;;;;;5053499;23;115144;-59
2022/07/06 02:59:34;;;;;;;0.00;0.00;;;14.60;72.40;;;;;;5053556;23;114882;-59
2022/07/06 03:01:37;;;;;;;0.00;0.00;;;14.50;72.50;;;;;;5052407;23;114858;-59
2022/07/06 03:03:40;;;;;;;0.00;0.00;;;14.50;72.40;;;;;;5053541;23;114943;-60
2022/07/06 03:05:44;;;;;;;0.00;0.00;;;14.40;72.30;;;;;;5053298;23;114936;-59
2022/07/06 03:07:47;;;;;;;0.00;0.00;;;14.40;72.40;;;;;;5079236;22;114927;-60
2022/07/06 03:09:50;;;;;;;0.00;0.00;;;14.40;72.50;;;;;;5053055;23;115203;-59
2022/07/06 03:11:53;;;;;;;0.00;0.00;;;14.40;72.50;;;;;;5079462;22;115654;-59
2022/07/06 03:13:57;;;;;;;0.00;0.00;;;14.30;72.50;;;;;;5079331;22;114057;-60
2022/07/06 03:16:01;;;;;;;0.00;0.00;;;14.20;72.70;;;;;;5077617;22;114930;-59
2022/07/06 03:18:06;;;;;;;0.00;0.00;;;14.20;72.50;;;;;;5052776;23;114990;-59
2022/07/06 03:20:09;;;;;;;0.00;0.00;;;14.20;72.70;;;;;;5079526;22;114104;-59
2022/07/06 03:22:12;;;;;;;0.00;0.00;;;14.20;72.70;;;;;;5052940;23;114851;-59
2022/07/06 03:24:16;;;;;;;0.00;0.00;;;14.10;72.50;;;;;;5054088;23;115723;-60
2022/07/06 03:26:20;;;;;;;0.00;0.00;;;14.10;72.50;;;;;;5079247;22;114773;-60
2022/07/06 03:28:23;;;;;;;0.00;0.00;;;14.10;72.50;;;;;;5052755;23;115439;-59
2022/07/06 03:30:27;;;;;;;0.00;0.00;;;14.10;72.70;;;;;;5052418;23;114861;-59
2022/07/06 03:32:33;;;;;;;0.00;0.00;;;14.00;72.90;;;;;;5052679;23;116341;-59
2022/07/06 03:34:38;;;;;;;0.00;0.00;;;14.00;73.00;;;;;;5053490;23;114821;-59
2022/07/06 03:36:42;;;;;;;0.00;0.00;;;14.00;73.10;;;;;;5076720;22;114723;-60
2022/07/06 03:38:45;;;;;;;0.00;0.00;;;14.00;72.90;;;;;;5079502;22;114761;-60
2022/07/06 03:40:48;;;;;;;0.00;0.00;;;14.00;73.00;;;;;;5053489;23;115911;-60
2022/07/06 03:42:51;;;;;;;0.00;0.00;;;13.90;72.90;;;;;;5053008;23;115555;-59
2022/07/06 03:44:55;;;;;;;0.00;0.00;;;14.00;73.20;;;;;;5053235;23;113767;-59
2022/07/06 03:46:58;;;;;;;0.00;0.00;;;13.90;73.10;;;;;;5052612;23;115132;-59
2022/07/06 03:49:04;;;;;;;0.00;0.00;;;13.90;73.20;;;;;;5027999;23;114907;-59
2022/07/06 03:51:07;;;;;;;0.00;0.00;;;13.90;73.10;;;;;;5078022;22;115464;-59
2022/07/06 03:53:10;;;;;;;0.00;0.00;;;13.90;73.10;;;;;;5053027;23;114908;-60
2022/07/06 03:55:13;;;;;;;0.00;0.00;;;14.00;73.30;;;;;;5053181;23;114927;-60
2022/07/06 03:57:22;;;;;;;0.00;0.00;;;14.00;73.40;;;;;;5052394;23;115006;-59
2022/07/06 03:59:25;;;;;;;0.00;0.00;;;14.00;73.50;;;;;;5079289;22;114819;-59
2022/07/06 04:01:30;;;;;;;0.00;0.00;;;14.10;73.50;;;;;;5052194;23;114280;-60
2022/07/06 04:03:34;;;;;;;0.00;0.00;;;14.10;73.50;;;;;;5052717;23;114016;-59
2022/07/06 04:05:40;;;;;;;0.00;0.00;;;14.10;73.50;;;;;;5052413;23;114972;-59
2022/07/06 04:07:43;;;;;;;0.00;0.00;;;14.10;73.50;;;;;;5052735;23;115007;-59
2022/07/06 04:09:46;;;;;;;0.10;0.00;;;14.20;73.70;;;;;;5052678;23;114768;-59
2022/07/06 04:11:50;;;;;;;0.00;0.00;;;14.30;73.80;;;;;;5051343;23;114886;-59
2022/07/06 04:13:54;;;;;;;0.00;0.00;;;14.30;73.70;;;;;;5052804;23;115345;-60
2022/07/06 04:15:59;;;;;;;0.00;0.00;;;14.30;73.70;;;;;;5051458;23;113874;-59
2022/07/06 04:18:02;;;;;;;0.00;0.00;;;14.30;73.60;;;;;;5078786;22;115603;-59
2022/07/06 04:20:14;;;;;;;0.00;0.00;;;14.40;73.90;;;;;;5052393;23;114695;-60
2022/07/06 04:22:18;;;;;;;0.00;0.00;;;14.40;73.80;;;;;;5053174;23;115297;-60
2022/07/06 04:24:21;;;;;;;0.00;0.00;;;14.40;73.70;;;;;;5079110;22;115154;-59
2022/07/06 04:26:25;;;;;;;0.00;0.00;;;14.50;73.70;;;;;;5077440;22;116117;-59
2022/07/06 04:28:28;;;;;;;0.00;0.00;;;14.50;73.50;;;;;;5053356;23;114016;-60
2022/07/06 04:30:31;;;;;;;0.00;0.00;;;14.50;73.30;;;;;;5077333;22;113948;-59
2022/07/06 04:32:36;;;;;;;0.00;0.00;;;14.50;73.20;;;;;;5077365;22;115332;-59
2022/07/06 04:34:39;;;;;;;0.00;0.00;;;14.40;73.10;;;;;;5078992;22;113773;-59
2022/07/06 04:36:43;;;;;;;0.00;0.00;;;14.40;73.30;;;;;;5052105;23;116523;-59
2022/07/06 04:38:47;;;;;;;0.00;0.00;;;14.50;73.50;;;;;;5052703;23;115186;-59
2022/07/06 04:40:51;;;;;;;0.00;0.00;;;14.50;73.60;;;;;;5079552;22;115342;-60
2022/07/06 04:42:55;;;;;;;0.00;0.00;;;14.50;73.70;;;;;;5053437;23;116885;-59
2022/07/06 04:45:00;;;;;;;0.00;0.00;;;14.50;74.50;;;;;;5053018;23;114891;-59
2022/07/06 04:47:04;;;;;;;0.00;0.00;;;14.50;74.30;;;;;;5077264;22;114817;-59
2022/07/06 04:49:07;;;;;;;0.00;0.00;;;14.50;74.50;;;;;;5053186;23;114181;-59
2022/07/06 04:51:11;;;;;;;0.00;0.00;;;14.50;75.10;;;;;;5054065;23;114969;-60
2022/07/06 04:53:14;;;;;;;0.00;0.00;;;14.40;75.20;;;;;;5053002;23;114842;-59
2022/07/06 04:55:19;;;;;;;0.00;0.00;;;14.30;75.40;;;;;;5054111;23;114989;-59
2022/07/06 04:57:25;;;;;;;0.00;0.00;;;14.30;75.50;;;;;;5052980;23;115794;-59
2022/07/06 04:59:29;;;;;;;0.00;0.00;;;14.30;75.70;;;;;;5053979;23;114884;-60
2022/07/06 05:01:35;;;;;;;0.00;0.00;;;14.30;76.00;;;;;;5079523;22;114943;-59
2022/07/06 05:03:40;;;;;;;0.00;0.00;;;14.30;76.20;;;;;;5053701;23;115538;-60
2022/07/06 05:05:45;;;;;;;0.00;0.00;;;14.30;76.20;;;;;;5053298;23;114720;-59
2022/07/06 05:07:48;;;;;;;0.00;0.00;;;14.40;76.30;;;;;;5080534;22;114778;-60
2022/07/06 05:09:51;;;;;;;0.00;0.00;;;14.40;76.40;;;;;;5052799;23;114363;-60
2022/07/06 05:11:56;;;;;;;0.00;0.00;;;14.40;76.40;;;;;;5053450;23;115160;-59
2022/07/06 05:14:00;;;;;;;0.00;0.00;;;14.50;76.40;;;;;;5053599;23;114733;-60
2022/07/06 05:16:03;;;;;;;0.00;0.00;;;14.60;76.50;;;;;;5080312;22;114818;-60
2022/07/06 05:18:07;;;;;;;0.00;0.00;;;14.60;76.60;;;;;;5052003;23;115152;-59
2022/07/06 05:20:10;;;;;;;0.10;0.00;;;14.70;76.60;;;;;;5079848;22;114670;-59
2022/07/06 05:22:16;;;;;;;0.00;0.00;;;14.70;76.60;;;;;;5052516;23;114681;-59
2022/07/06 05:24:19;;;;;;;0.00;0.00;;;14.80;76.50;;;;;;5080477;22;114781;-59
2022/07/06 05:26:23;;;;;;;0.00;0.00;;;14.80;76.40;;;;;;5053563;23;114803;-59
2022/07/06 05:28:28;;;;;;;0.00;0.00;;;14.90;76.50;;;;;;5054054;23;115323;-60
2022/07/06 05:30:39;;;;;;;0.00;0.00;;;14.90;76.30;;;;;;5052989;23;116217;-59
2022/07/06 05:32:43;;;;;;;0.00;0.00;;;15.00;76.20;;;;;;5053251;23;115377;-59
2022/07/06 05:34:46;;;;;;;0.00;0.00;;;15.10;76.20;;;;;;5053364;23;114959;-60
2022/07/06 05:36:49;;;;;;;0.00;0.00;;;15.10;76.30;;;;;;5051964;23;114282;-60
2022/07/06 05:38:52;;;;;;;0.00;0.00;;;15.10;76.30;;;;;;5079757;22;115428;-60
2022/07/06 05:40:55;;;;;;;0.00;0.00;;;15.20;76.30;;;;;;5080174;22;115111;-59
2022/07/06 05:42:58;;;;;;;0.00;0.00;;;15.20;76.20;;;;;;5053295;23;114918;-59
2022/07/06 05:45:04;;;;;;;0.00;0.00;;;15.30;76.20;;;;;;5078477;22;114844;-59
2022/07/06 05:51:49;;;;;;;0.00;0.00;;;15.40;76.20;;;;;;5079126;22;113944;-60
2022/07/06 05:53:53;;;;;;;0.00;0.00;;;15.40;76.00;;;;;;5053330;23;115330;-60
2022/07/06 05:55:57;;;;;;;0.00;0.00;;;15.50;76.00;;;;;;5053926;23;114222;-60
2022/07/06 05:58:01;;;;;;;0.00;0.00;;;15.50;76.10;;;;;;5053157;23;114816;-63
2022/07/06 06:00:09;;;;;;;0.00;0.00;;;15.60;76.20;;;;;;5053246;23;113783;-60
2022/07/06 06:02:17;;;;;;;0.00;0.00;;;15.60;76.30;;;;;;5079564;22;113831;-60
2022/07/06 06:04:21;;;;;;;0.00;0.00;;;15.80;76.40;;;;;;5053186;23;114886;-60
2022/07/06 06:06:24;;;;;;;0.00;0.00;;;15.90;76.00;;;;;;5079236;22;114229;-59
2022/07/06 06:08:27;;;;;;;0.00;0.00;;;16.00;76.60;;;;;;5079535;22;114804;-60
2022/07/06 06:10:31;;;;;;;0.00;0.00;;;16.40;77.00;;;;;;5052841;23;113993;-60
2022/07/06 06:12:38;;;;;;;0.00;0.00;;;16.90;76.90;;;;;;5052943;23;113871;-60
2022/07/06 06:14:41;;;;;;;0.00;0.00;;;17.50;76.20;;;;;;5079647;22;115732;-60
2022/07/06 06:16:46;;;;;;;0.00;0.00;;;17.90;74.80;;;;;;5079870;22;115310;-60
2022/07/06 06:18:49;;;;;;;0.00;0.00;;;18.20;72.50;;;;;;5080019;22;115031;-60
2022/07/06 06:20:52;;;;;;;0.00;0.00;;;18.40;71.30;;;;;;5079761;22;114694;-60
2022/07/06 06:22:57;;;;;;;0.00;0.00;;;18.50;70.40;;;;;;5080235;22;114757;-60
2022/07/06 06:25:00;;;;;;;0.00;0.00;;;18.60;69.50;;;;;;5052571;23;114941;-60
2022/07/06 06:27:04;;;;;;;0.00;0.00;;;19.00;68.60;;;;;;5078273;22;114091;-60
2022/07/06 06:29:07;;;;;;;0.00;0.00;;;19.40;66.70;;;;;;5078377;22;113783;-60
2022/07/06 06:31:10;;;;;;;0.00;0.00;;;20.10;65.50;;;;;;5079996;22;114593;-60
2022/07/06 06:33:16;;;;;;;0.00;0.00;;;20.70;63.70;;;;;;5079103;22;114783;-60
2022/07/06 06:35:19;;;;;;;0.00;0.00;;;21.40;61.60;;;;;;5079597;22;114824;-60
2022/07/06 06:37:22;;;;;;;0.00;0.00;;;22.00;60.10;;;;;;5080232;22;115060;-60
2022/07/06 06:39:26;;;;;;;0.00;0.00;;;22.50;58.00;;;;;;5080343;22;114819;-60
2022/07/06 06:41:29;;;;;;;0.00;0.00;;;22.90;56.60;;;;;;5080041;22;114843;-60
2022/07/06 06:43:32;;;;;;;0.00;0.00;;;23.30;55.80;;;;;;5078912;22;113598;-60
2022/07/06 06:45:41;;;;;;;0.00;0.00;;;23.80;54.60;;;;;;5079284;22;114190;-60
2022/07/06 06:47:44;;;;;;;0.00;0.00;;;24.00;53.30;;;;;;5079593;22;115338;-63
2022/07/06 06:49:49;;;;;;;0.00;0.00;;;23.80;51.70;;;;;;5078555;22;114256;-62
2022/07/06 06:51:52;;;;;;;0.00;0.00;;;23.70;51.30;;;;;;5080154;22;114820;-60
2022/07/06 06:54:15;;;;;;;0.00;0.00;;;23.80;50.70;;;;;;5079443;22;114286;-60
2022/07/06 06:56:18;;;;;;;0.00;0.00;;;24.00;49.50;;;;;;5080080;22;114758;-60
2022/07/06 06:58:21;;;;;;;0.00;0.00;;;24.10;48.20;;;;;;5079775;22;115610;-60
2022/07/06 07:00:25;;;;;;;0.00;0.00;;;24.20;47.30;;;;;;5079375;22;114907;-60
2022/07/06 07:02:28;;;;;;;0.00;0.00;;;24.40;46.60;;;;;;5078128;22;115343;-60
2022/07/06 07:04:31;;;;;;;0.00;0.00;;;24.50;46.00;;;;;;5078103;22;114860;-60
2022/07/06 07:06:36;;;;;;;0.00;0.00;;;24.70;45.60;;;;;;5078835;22;114523;-60
2022/07/06 07:08:39;;;;;;;0.00;0.00;;;24.80;44.90;;;;;;5079801;22;114696;-60
2022/07/06 07:10:42;;;;;;;0.00;0.00;;;24.90;44.60;;;;;;5052828;23;115606;-60
2022/07/06 07:12:46;;;;;;;0.00;0.00;;;25.00;43.70;;;;;;5080257;22;114589;-60
2022/07/06 07:14:49;;;;;;;0.00;0.00;;;25.00;43.40;;;;;;5052616;23;114807;-60
2022/07/06 07:16:52;;;;;;;0.00;0.00;;;25.20;43.50;;;;;;5078619;22;114946;-61
2022/07/06 07:18:55;;;;;;;0.00;0.00;;;25.50;43.50;;;;;;5078121;22;114157;-60
2022/07/06 07:20:59;;;;;;;0.00;0.00;;;25.80;43.40;;;;;;5079690;22;115204;-60
2022/07/06 07:23:03;;;;;;;0.00;0.00;;;26.00;42.50;;;;;;5079704;22;114489;-60
2022/07/06 07:25:07;;;;;;;0.00;0.00;;;26.20;41.70;;;;;;5053710;23;115311;-60
2022/07/06 07:27:10;;;;;;;0.00;0.00;;;26.30;41.40;;;;;;5079487;22;114807;-60
2022/07/06 07:29:13;;;;;;;0.00;0.00;;;26.40;41.10;;;;;;5079937;22;115241;-60
2022/07/06 07:31:17;;;;;;;0.00;0.00;;;26.50;41.20;;;;;;5079275;22;114724;-61
2022/07/06 07:33:20;;;;;;;0.00;0.00;;;26.50;40.40;;;;;;5079227;22;115396;-60
2022/07/06 07:35:24;;;;;;;0.00;0.00;;;26.60;40.10;;;;;;5078657;22;114337;-60
2022/07/06 07:37:27;;;;;;;0.00;0.00;;;26.40;39.90;;;;;;5078760;22;114364;-60
2022/07/06 07:39:31;;;;;;;0.00;0.00;;;26.40;40.10;;;;;;5078529;22;114236;-60
2022/07/06 07:41:34;;;;;;;0.00;0.00;;;26.40;40.10;;;;;;5079561;22;114934;-60
2022/07/06 07:43:38;;;;;;;0.00;0.00;;;26.30;40.00;;;;;;5078326;22;113903;-59
2022/07/06 07:45:41;;;;;;;0.00;0.00;;;26.20;40.00;;;;;;5078634;22;114740;-60
2022/07/06 07:47:44;;;;;;;0.00;0.00;;;26.10;40.10;;;;;;5079296;22;114834;-60
2022/07/06 07:49:47;;;;;;;0.00;0.00;;;26.10;40.10;;;;;;5077632;22;113995;-60
2022/07/06 07:51:50;;;;;;;0.00;0.00;;;25.80;39.50;;;;;;5079136;22;114150;-60
2022/07/06 07:53:53;;;;;;;0.00;0.00;;;25.70;39.80;;;;;;5079057;22;114895;-60
2022/07/06 07:55:58;;;;;;;0.00;0.00;;;25.70;40.20;;;;;;5079312;22;114867;-60
2022/07/06 07:58:01;;;;;;;0.00;0.00;;;25.70;39.90;;;;;;5079589;22;115335;-60
2022/07/06 08:00:06;;;;;;;0.00;0.00;;;25.60;40.20;;;;;;5079711;22;114740;-60
2022/07/06 08:02:13;;;;;;;0.00;0.00;;;25.30;40.10;;;;;;5078968;22;115268;-60
2022/07/06 08:04:16;;;;;;;0.00;0.00;;;25.00;40.40;;;;;;5079361;22;114804;-60
2022/07/06 08:06:19;;;;;;;0.00;0.00;;;24.70;40.80;;;;;;5079106;22;115240;-59
2022/07/06 08:08:22;;;;;;;0.00;0.00;;;24.40;41.20;;;;;;5078395;22;113863;-60
2022/07/06 08:10:26;;;;;;;0.03;0.00;;;24.20;41.60;;;;;;5078151;22;114120;-59
2022/07/06 08:12:31;;;;;;;0.00;0.00;;;24.00;42.00;;;;;;5078111;22;114024;-59
2022/07/06 08:14:34;;;;;;;0.00;0.00;;;23.70;42.40;;;;;;5079095;22;115466;-60
2022/07/06 08:16:37;;;;;;;0.00;0.00;;;23.30;42.90;;;;;;5077354;22;113775;-59
2022/07/06 08:18:40;;;;;;;0.00;0.00;;;23.00;43.50;;;;;;5079640;22;114793;-60
2022/07/06 08:20:43;;;;;;;0.00;0.00;;;22.70;44.80;;;;;;5079114;22;115944;-59
2022/07/06 08:23:07;;;;;;;0.00;0.00;;;22.70;45.00;;;;;;5079247;22;115383;-59
2022/07/06 08:25:10;;;;;;;0.00;0.00;;;23.00;45.40;;;;;;5078187;22;114759;-59
2022/07/06 08:27:13;;;;;;;0.00;0.00;;;23.30;45.30;;;;;;5080848;22;114752;-59
2022/07/06 08:29:17;;;;;;;0.00;0.00;;;23.60;44.70;;;;;;5080252;22;114228;-60
2022/07/06 08:31:21;;;;;;;0.00;0.00;;;23.50;43.90;;;;;;5080120;22;116386;-59
2022/07/06 08:33:44;;;;;;;0.00;0.00;;;23.40;43.90;;;;;;5080186;22;114666;-60
2022/07/06 08:35:47;;;;;;;0.00;0.00;;;23.30;44.20;;;;;;5080491;22;114860;-59
2022/07/06 08:37:50;;;;;;;0.00;0.00;;;23.40;44.20;;;;;;5080487;22;114754;-60
2022/07/06 08:39:53;;;;;;;0.00;0.00;;;23.40;44.00;;;;;;5080588;22;114909;-60
2022/07/06 08:41:59;;;;;;;0.00;0.00;;;23.40;44.00;;;;;;5079223;22;114984;-60
2022/07/06 08:44:02;;;;;;;0.00;0.00;;;23.40;44.20;;;;;;5080645;22;115039;-60
2022/07/06 08:46:08;;;;;;;0.00;0.00;;;23.50;44.40;;;;;;5080097;22;115154;-60
2022/07/06 08:48:12;;;;;;;0.00;0.00;;;23.80;44.40;;;;;;5080696;22;115264;-60
2022/07/06 08:50:16;;;;;;;0.00;0.00;;;23.80;44.00;;;;;;5080538;22;114864;-60
2022/07/06 08:52:19;;;;;;;0.00;0.00;;;23.80;44.00;;;;;;5079601;22;115159;-60
2022/07/06 08:54:23;;;;;;;0.00;0.00;;;23.90;43.80;;;;;;5080395;22;115616;-60
2022/07/06 08:56:28;;;;;;;0.00;0.00;;;23.70;43.20;;;;;;5079243;22;113823;-60
2022/07/06 08:58:33;;;;;;;0.00;0.00;;;23.50;43.10;;;;;;5080016;22;114760;-60
2022/07/06 09:00:37;;;;;;;0.00;0.00;;;23.30;43.40;;;;;;5079502;22;114933;-60
2022/07/06 09:02:42;;;;;;;0.00;0.00;;;23.20;43.60;;;;;;5078837;22;114830;-60
2022/07/06 09:04:47;;;;;;;0.00;0.00;;;23.10;44.10;;;;;;5080168;22;114239;-60
2022/07/06 09:06:51;;;;;;;0.00;0.00;;;23.40;44.40;;;;;;5078469;22;115216;-60
2022/07/06 09:08:55;;;;;;;0.00;0.00;;;23.80;44.40;;;;;;5077822;22;114334;-60
2022/07/06 09:10:58;;;;;;;0.00;0.00;;;24.30;44.50;;;;;;5079017;22;114658;-60
2022/07/06 09:13:05;;;;;;;0.00;0.00;;;24.60;43.70;;;;;;5079822;22;114739;-60
2022/07/06 09:15:09;;;;;;;0.00;0.00;;;24.60;42.10;;;;;;5080783;22;115453;-60
2022/07/06 09:17:13;;;;;;;0.00;0.00;;;24.60;42.30;;;;;;5079708;22;114877;-60
2022/07/06 09:19:20;;;;;;;0.00;0.00;;;24.60;42.60;;;;;;5079776;22;115882;-60
2022/07/06 09:21:25;;;;;;;0.00;0.00;;;24.60;42.30;;;;;;5077665;22;113837;-60
2022/07/06 09:23:28;;;;;;;0.00;0.00;;;24.50;42.40;;;;;;5079783;22;114952;-60
2022/07/06 09:25:32;;;;;;;0.00;0.00;;;24.60;42.60;;;;;;5079529;22;114825;-60
2022/07/06 09:27:38;;;;;;;0.00;0.00;;;24.60;42.20;;;;;;5053389;23;116850;-60
2022/07/06 09:29:42;;;;;;;0.00;0.00;;;24.50;42.10;;;;;;5079923;22;114827;-60
2022/07/06 09:31:57;;;;;;;0.00;0.00;;;24.50;42.50;;;;;;5078917;22;115141;-60
2022/07/06 09:34:05;;;;;;;0.00;0.00;;;24.50;42.10;;;;;;5080046;22;115623;-59
2022/07/06 09:36:09;;;;;;;0.00;0.00;;;24.40;42.30;;;;;;5078834;22;113928;-59
2022/07/06 09:38:14;;;;;;;0.00;0.00;;;24.60;42.00;;;;;;5053966;23;114773;-59
2022/07/06 09:40:18;;;;;;;0.00;0.00;;;24.60;41.80;;;;;;5079587;22;113628;-59
2022/07/06 09:42:26;;;;;;;0.00;0.00;;;24.70;41.60;;;;;;5079364;22;114346;-59
2022/07/06 09:44:30;;;;;;;0.00;0.00;;;24.90;41.30;;;;;;5079643;22;115142;-59
2022/07/06 09:46:39;;;;;;;0.00;0.00;;;25.10;41.00;;;;;;5078853;22;113960;-59
2022/07/06 09:48:42;;;;;;;0.00;0.00;;;25.50;40.10;;;;;;5079725;22;114748;-60
2022/07/06 09:50:47;;;;;;;0.00;0.00;;;25.80;40.40;;;;;;5078584;22;114400;-59
2022/07/06 09:52:56;;;;;;;0.00;0.00;;;26.20;40.10;;;;;;5080432;22;114771;-59
2022/07/06 09:54:59;;;;;;;0.00;0.00;;;26.30;39.90;;;;;;5080056;22;116451;-59
2022/07/06 09:57:03;;;;;;;0.00;0.00;;;26.30;40.30;;;;;;5079879;22;114124;-60
2022/07/06 09:59:11;;;;;;;0.00;0.00;;;26.50;39.80;;;;;;5080446;22;114834;-59
2022/07/06 10:01:26;;;;;;;0.00;0.00;;;26.50;38.70;;;;;;5080759;22;114753;-60
2022/07/06 10:03:31;;;;;;;0.00;0.00;;;26.70;36.20;;;;;;5078722;22;114909;-60
2022/07/06 10:05:37;;;;;;;0.00;0.00;;;26.60;37.40;;;;;;5079526;22;115442;-59
2022/07/06 10:07:40;;;;;;;0.00;0.00;;;26.60;37.60;;;;;;5079358;22;113918;-60
2022/07/06 10:09:47;;;;;;;0.00;0.00;;;26.50;37.60;;;;;;5079734;22;114760;-60
2022/07/06 10:11:51;;;;;;;0.00;0.00;;;26.70;37.00;;;;;;5080090;22;114947;-60
2022/07/06 10:13:58;;;;;;;0.00;0.00;;;26.70;37.10;;;;;;5078618;22;114092;-60
2022/07/06 10:16:01;;;;;;;0.00;0.00;;;27.00;37.20;;;;;;5080639;22;114891;-59
2022/07/06 10:18:06;;;;;;;0.00;0.00;;;27.30;36.70;;;;;;5079704;22;114654;-60
2022/07/06 10:20:12;;;;;;;0.00;0.00;;;27.40;36.20;;;;;;5080072;22;114769;-59
2022/07/06 10:22:17;;;;;;;0.00;0.00;;;27.50;35.90;;;;;;5078979;22;113978;-60
2022/07/06 10:24:21;;;;;;;0.00;0.00;;;27.40;35.80;;;;;;5079550;22;115208;-60
2022/07/06 10:26:26;;;;;;;0.00;0.00;;;27.50;36.10;;;;;;5079825;22;115036;-60
2022/07/06 10:28:29;;;;;;;0.00;0.00;;;27.70;35.60;;;;;;5080148;22;114465;-60
2022/07/06 10:30:33;;;;;;;0.00;0.00;;;27.90;35.70;;;;;;5079301;22;114818;-64
2022/07/06 10:32:39;;;;;;;0.00;0.00;;;28.20;35.20;;;;;;5078524;22;114678;-60
2022/07/06 10:34:43;;;;;;;0.00;0.00;;;28.70;35.30;;;;;;5079942;22;115491;-60
2022/07/06 10:36:51;;;;;;;0.00;0.00;;;28.90;34.60;;;;;;5078693;22;114387;-60
2022/07/06 10:38:55;;;;;;;0.00;0.00;;;28.80;33.40;;;;;;5079612;22;114936;-60
2022/07/06 10:41:02;;;;;;;0.00;0.00;;;28.60;34.10;;;;;;5079618;22;116520;-60
2022/07/06 10:43:10;;;;;;;0.00;0.00;;;28.70;33.50;;;;;;5077805;22;114063;-60
2022/07/06 10:45:15;;;;;;;0.00;0.00;;;28.90;33.70;;;;;;5078196;22;114876;-60